createdAt,value
2019-02-22T00:01:09.248Z,4.20
2019-02-22T00:03:37.454Z,3.80
2019-02-22T00:06:05.518Z,4.13
2019-02-22T00:08:35.179Z,4.40
2019-02-22T00:11:03.244Z,3.93
2019-02-22T00:13:31.815Z,3.97
2019-02-22T00:15:59.886Z,4.30
2019-02-22T00:18:28.001Z,4.57
2019-02-22T00:20:56.364Z,3.90
2019-02-22T00:23:24.463Z,3.90
2019-02-22T00:25:52.532Z,4.10
2019-02-22T00:28:22.163Z,3.80
2019-02-22T00:30:50.198Z,4.70
2019-02-22T00:33:18.287Z,4.07
2019-02-22T00:35:46.358Z,4.17
2019-02-22T00:38:14.506Z,4.80
2019-02-22T00:40:42.710Z,4.03
2019-02-22T00:43:11.143Z,4.20
2019-02-22T00:45:39.685Z,4.57
2019-02-22T00:48:07.802Z,4.80
2019-02-22T00:50:36.119Z,4.47
2019-02-22T00:53:04.212Z,4.57
2019-02-22T00:55:32.370Z,4.93
2019-02-22T00:58:00.723Z,4.97
2019-02-22T01:00:29.099Z,4.17
2019-02-22T01:02:57.247Z,4.63
2019-02-22T01:05:26.356Z,4.43
2019-02-22T01:07:56.565Z,4.80
2019-02-22T01:10:31.119Z,4.50
2019-02-22T01:12:54.946Z,5.03
2019-02-22T01:15:24.909Z,4.63
2019-02-22T01:17:53.180Z,4.90
2019-02-22T01:20:21.950Z,4.60
2019-02-22T01:22:50.171Z,5.17
2019-02-22T01:25:18.211Z,5.03
2019-02-22T01:27:46.411Z,4.80
2019-02-22T01:30:14.477Z,4.33
2019-02-22T01:32:42.570Z,4.60
2019-02-22T01:35:10.623Z,5.07
2019-02-22T01:37:39.078Z,4.53
2019-02-22T01:40:09.081Z,4.33
2019-02-22T01:42:37.662Z,4.23
2019-02-22T01:45:06.339Z,4.00
2019-02-22T01:47:34.449Z,4.10
2019-02-22T01:50:02.879Z,4.30
2019-02-22T01:52:32.137Z,4.57
2019-02-22T01:55:00.344Z,4.17
2019-02-22T01:57:28.926Z,3.90
2019-02-22T01:59:57.038Z,3.67
2019-02-22T02:02:25.116Z,3.87
2019-02-22T02:04:53.328Z,3.80
2019-02-22T02:07:21.411Z,4.00
2019-02-22T02:09:49.591Z,4.33
2019-02-22T02:12:18.728Z,4.40
2019-02-22T02:14:47.278Z,4.23
2019-02-22T02:17:17.714Z,4.50
2019-02-22T02:19:45.652Z,4.73
2019-02-22T02:22:13.809Z,4.67
2019-02-22T02:24:41.889Z,4.17
2019-02-22T02:27:10.268Z,4.73
2019-02-22T02:29:38.313Z,4.27
2019-02-22T02:32:06.091Z,4.07
2019-02-22T02:34:34.984Z,4.20
2019-02-22T02:37:03.216Z,4.40
2019-02-22T02:39:31.422Z,4.33
2019-02-22T02:41:59.521Z,4.20
2019-02-22T02:44:27.585Z,3.47
2019-02-22T02:46:55.951Z,3.43
2019-02-22T02:49:24.022Z,3.77
2019-02-22T02:51:52.104Z,3.97
2019-02-22T02:54:20.201Z,4.10
2019-02-22T02:56:48.318Z,4.30
2019-02-22T02:59:16.653Z,4.00
2019-02-22T03:01:44.944Z,3.80
2019-02-22T03:04:13.054Z,4.10
2019-02-22T03:07:04.308Z,4.53
2019-02-22T03:09:32.953Z,3.87
2019-02-22T03:12:01.118Z,3.53
2019-02-22T03:14:30.428Z,4.00
2019-02-22T03:16:58.477Z,3.70
2019-02-22T03:19:26.557Z,3.97
2019-02-22T03:21:54.696Z,4.07
2019-02-22T03:24:23.044Z,4.17
2019-02-22T03:26:51.100Z,3.97
2019-02-22T03:29:19.513Z,3.97
2019-02-22T03:31:48.572Z,4.23
2019-02-22T03:34:16.618Z,4.40
2019-02-22T03:36:44.668Z,3.83
2019-02-22T03:39:12.710Z,3.63
2019-02-22T03:41:40.803Z,4.03
2019-02-22T03:44:08.882Z,4.13
2019-02-22T03:46:36.912Z,4.37
2019-02-22T03:49:04.972Z,4.27
2019-02-22T03:51:33.012Z,3.93
2019-02-22T03:54:02.414Z,4.23
2019-02-22T03:56:30.483Z,3.63
2019-02-22T03:58:58.559Z,3.33
2019-02-22T04:01:26.672Z,3.77
2019-02-22T04:03:54.761Z,3.50
2019-02-22T04:06:22.821Z,3.27
2019-02-22T04:08:51.900Z,4.00
2019-02-22T04:11:19.971Z,4.20
2019-02-22T04:13:48.568Z,3.90
2019-02-22T04:16:16.736Z,3.63
2019-02-22T04:18:45.108Z,4.10
2019-02-22T04:21:13.171Z,3.67
2019-02-22T04:23:41.219Z,4.17
2019-02-22T04:26:09.396Z,4.03
2019-02-22T04:28:37.464Z,3.60
2019-02-22T04:31:05.533Z,4.13
2019-02-22T04:33:33.588Z,4.17
2019-02-22T04:36:01.717Z,4.53
2019-02-22T04:38:31.457Z,4.27
2019-02-22T04:40:59.531Z,4.23
2019-02-22T04:43:27.582Z,4.20
2019-02-22T04:45:55.813Z,4.50
2019-02-22T04:48:23.943Z,4.03
2019-02-22T04:50:52.032Z,4.00
2019-02-22T04:53:23.337Z,4.67
2019-02-22T04:55:51.867Z,4.20
2019-02-22T04:58:20.208Z,4.50
2019-02-22T05:00:48.432Z,4.20
2019-02-22T05:03:16.487Z,4.30
2019-02-22T05:05:44.888Z,4.60
2019-02-22T05:08:12.957Z,4.27
2019-02-22T05:10:41.013Z,4.13
2019-02-22T05:13:09.136Z,4.13
2019-02-22T05:15:37.242Z,4.23
2019-02-22T05:18:05.362Z,4.33
2019-02-22T05:20:33.580Z,4.53
2019-02-22T05:23:04.437Z,4.37
2019-02-22T05:25:31.812Z,4.33
2019-02-22T05:28:00.021Z,4.60
2019-02-22T05:30:28.341Z,4.57
2019-02-22T05:32:56.685Z,4.47
2019-02-22T05:35:24.734Z,3.90
2019-02-22T05:37:52.884Z,4.33
2019-02-22T05:40:21.263Z,4.53
2019-02-22T05:42:50.640Z,4.37
2019-02-22T05:45:18.737Z,4.63
2019-02-22T05:47:47.107Z,4.27
2019-02-22T05:50:15.158Z,4.10
2019-02-22T05:52:43.227Z,4.50
2019-02-22T05:55:11.288Z,4.40
2019-02-22T05:57:39.341Z,4.60
2019-02-22T06:00:07.995Z,4.23
2019-02-22T06:02:36.044Z,4.33
2019-02-22T06:05:04.500Z,4.10
2019-02-22T06:07:32.746Z,4.33
2019-02-22T06:10:01.108Z,4.37
2019-02-22T06:12:34.526Z,4.23
2019-02-22T06:14:59.176Z,4.67
2019-02-22T06:17:27.320Z,4.80
2019-02-22T06:19:55.360Z,4.30
2019-02-22T06:22:29.542Z,4.60
2019-02-22T06:24:53.444Z,4.80
2019-02-22T06:27:21.487Z,4.50
2019-02-22T06:29:49.973Z,5.03
2019-02-22T06:32:18.501Z,5.10
2019-02-22T06:34:46.551Z,4.90
2019-02-22T06:37:14.616Z,4.43
2019-02-22T06:39:42.677Z,4.30
2019-02-22T06:42:10.739Z,4.67
2019-02-22T06:44:38.783Z,4.40
2019-02-22T06:47:06.834Z,4.60
2019-02-22T06:49:35.914Z,4.03
2019-02-22T06:52:03.975Z,4.70
2019-02-22T06:54:32.040Z,4.47
2019-02-22T06:57:00.486Z,4.13
2019-02-22T06:59:28.511Z,4.03
2019-02-22T07:01:56.556Z,4.90
2019-02-22T07:04:24.619Z,4.30
2019-02-22T07:06:52.693Z,4.80
2019-02-22T07:09:20.728Z,4.93
2019-02-22T07:12:14.147Z,5.07
2019-02-22T07:14:42.176Z,4.67
2019-02-22T07:17:10.239Z,4.37
2019-02-22T07:19:38.278Z,4.70
2019-02-22T07:22:06.637Z,5.13
2019-02-22T07:24:34.680Z,4.47
2019-02-22T07:27:03.067Z,4.43
2019-02-22T07:29:31.098Z,4.87
2019-02-22T07:32:05.864Z,4.70
2019-02-22T07:34:29.124Z,4.97
2019-02-22T07:36:57.207Z,4.50
2019-02-22T07:39:28.155Z,4.53
2019-02-22T07:41:55.167Z,4.67
2019-02-22T07:44:23.565Z,5.13
2019-02-22T07:46:51.625Z,4.90
2019-02-22T07:49:24.966Z,4.80
2019-02-22T07:51:55.855Z,4.97
2019-02-22T07:54:23.874Z,4.57
2019-02-22T07:56:51.933Z,5.30
2019-02-22T07:59:19.959Z,4.63
2019-02-22T08:01:48.370Z,4.73
2019-02-22T08:04:16.475Z,4.73
2019-02-22T08:06:44.712Z,4.63
2019-02-22T08:09:12.753Z,4.80
2019-02-22T08:11:40.800Z,5.03
2019-02-22T08:14:08.923Z,4.63
2019-02-22T08:16:37.310Z,4.80
2019-02-22T08:19:05.395Z,4.53
2019-02-22T08:21:33.419Z,5.03
2019-02-22T08:24:01.488Z,5.17
2019-02-22T08:26:29.812Z,5.33
2019-02-22T08:28:58.142Z,4.40
2019-02-22T08:31:26.442Z,4.70
2019-02-22T08:33:57.077Z,4.70
2019-02-22T08:36:24.782Z,4.93
2019-02-22T08:38:53.121Z,4.50
2019-02-22T08:41:21.191Z,4.83
2019-02-22T08:43:49.573Z,5.03
2019-02-22T08:46:17.681Z,4.60
2019-02-22T08:48:46.156Z,4.13
2019-02-22T08:51:14.236Z,4.63
2019-02-22T08:53:42.517Z,4.97
2019-02-22T08:56:10.550Z,4.53
2019-02-22T08:58:38.589Z,4.70
2019-02-22T09:01:06.647Z,4.83
2019-02-22T09:03:36.214Z,5.10
2019-02-22T09:06:04.243Z,4.53
2019-02-22T09:08:33.364Z,5.13
2019-02-22T09:11:01.402Z,5.07
2019-02-22T09:13:29.476Z,5.13
2019-02-22T09:15:57.525Z,5.33
2019-02-22T09:18:25.585Z,4.60
2019-02-22T09:20:54.039Z,5.00
2019-02-22T09:23:22.523Z,5.20
2019-02-22T09:25:50.594Z,5.43
2019-02-22T09:28:18.683Z,5.43
2019-02-22T09:30:46.725Z,4.90
2019-02-22T09:33:15.070Z,4.87
2019-02-22T09:35:43.121Z,4.67
2019-02-22T09:38:11.224Z,5.10
2019-02-22T09:40:39.547Z,5.23
2019-02-22T09:43:07.638Z,5.27
2019-02-22T09:45:35.689Z,5.03
2019-02-22T09:48:03.790Z,5.03
2019-02-22T09:50:31.940Z,5.37
2019-02-22T09:53:00.305Z,5.90
2019-02-22T09:55:28.359Z,5.70
2019-02-22T09:57:56.479Z,6.17
2019-02-22T10:00:26.245Z,5.63
2019-02-22T10:02:54.309Z,6.03
2019-02-22T10:05:22.271Z,6.30
2019-02-22T10:07:50.343Z,5.97
2019-02-22T10:10:18.744Z,6.17
2019-02-22T10:12:47.122Z,6.03
2019-02-22T10:15:15.439Z,5.87
2019-02-22T10:17:44.016Z,6.23
2019-02-22T10:20:12.194Z,6.27
2019-02-22T10:22:40.249Z,6.07
2019-02-22T10:25:08.400Z,6.87
2019-02-22T10:27:36.611Z,6.80
2019-02-22T10:30:04.962Z,6.67
2019-02-22T10:32:33.737Z,6.70
2019-02-22T10:35:01.926Z,6.97
2019-02-22T10:37:30.103Z,7.37
2019-02-22T10:39:58.171Z,6.80
2019-02-22T10:42:27.247Z,7.03
2019-02-22T10:44:55.334Z,7.90
2019-02-22T10:47:23.501Z,7.37
2019-02-22T10:49:51.588Z,7.07
2019-02-22T10:52:19.659Z,7.47
2019-02-22T10:54:47.718Z,7.83
2019-02-22T10:57:15.824Z,7.93
2019-02-22T10:59:43.877Z,7.43
2019-02-22T11:02:11.932Z,7.27
2019-02-22T11:04:39.985Z,8.20
2019-02-22T11:07:08.025Z,8.43
2019-02-22T11:09:36.099Z,8.27
2019-02-22T11:12:04.238Z,8.53
2019-02-22T11:14:32.284Z,7.90
2019-02-22T11:17:00.701Z,8.00
2019-02-22T11:19:28.786Z,8.37
2019-02-22T11:21:57.092Z,8.13
2019-02-22T11:24:25.398Z,8.10
2019-02-22T11:26:53.695Z,7.73
2019-02-22T11:29:22.044Z,8.60
2019-02-22T11:31:50.356Z,7.73
2019-02-22T11:34:18.721Z,8.50
2019-02-22T11:36:47.066Z,8.00
2019-02-22T11:39:15.408Z,7.77
2019-02-22T11:41:43.433Z,7.83
2019-02-22T11:44:11.526Z,7.97
2019-02-22T11:46:39.543Z,8.13
2019-02-22T11:49:07.608Z,7.07
2019-02-22T11:51:35.638Z,7.47
2019-02-22T11:54:04.920Z,7.10
2019-02-22T11:56:32.980Z,8.07
2019-02-22T11:59:02.144Z,8.17
2019-02-22T12:01:30.209Z,7.33
2019-02-22T12:03:58.291Z,7.73
2019-02-22T12:06:26.597Z,8.07
2019-02-22T12:08:54.806Z,8.60
2019-02-22T12:11:22.874Z,7.70
2019-02-22T12:13:51.016Z,8.70
2019-02-22T12:16:19.062Z,8.07
2019-02-22T12:18:47.268Z,8.47
2019-02-22T12:21:16.368Z,8.27
2019-02-22T12:23:44.693Z,8.63
2019-02-22T12:26:12.722Z,8.30
2019-02-22T12:28:40.773Z,8.60
2019-02-22T12:31:08.758Z,8.27
2019-02-22T12:33:36.854Z,7.90
2019-02-22T12:36:04.906Z,7.57
2019-02-22T12:38:33.980Z,7.50
2019-02-22T12:41:02.038Z,8.50
2019-02-22T12:43:30.232Z,8.00
2019-02-22T12:45:58.300Z,8.17
2019-02-22T12:48:26.364Z,7.50
2019-02-22T12:50:54.409Z,7.87
2019-02-22T12:53:22.444Z,7.93
2019-02-22T12:55:50.487Z,7.90
2019-02-22T12:58:18.525Z,8.50
2019-02-22T13:00:46.606Z,8.10
2019-02-22T13:03:14.817Z,7.97
2019-02-22T13:05:42.877Z,7.77
2019-02-22T13:08:12.337Z,8.60
2019-02-22T13:10:40.412Z,8.13
2019-02-22T13:13:08.476Z,7.10
2019-02-22T13:15:36.533Z,6.97
2019-02-22T13:18:04.591Z,6.40
2019-02-22T13:20:32.652Z,6.40
2019-02-22T13:23:01.262Z,7.23
2019-02-22T13:25:29.616Z,6.33
2019-02-22T13:27:57.693Z,7.10
2019-02-22T13:30:25.745Z,6.83
2019-02-22T13:32:53.856Z,6.90
2019-02-22T13:35:22.203Z,7.80
2019-02-22T13:37:50.840Z,7.20
2019-02-22T13:40:18.909Z,7.90
2019-02-22T13:42:46.975Z,7.77
2019-02-22T13:45:26.059Z,8.30
2019-02-22T13:47:45.629Z,7.37
2019-02-22T13:50:13.982Z,7.93
2019-02-22T13:52:42.077Z,6.90
2019-02-22T13:55:10.247Z,7.13
2019-02-22T13:57:38.717Z,6.80
2019-02-22T14:00:10.844Z,6.73
2019-02-22T14:02:38.972Z,5.83
2019-02-22T14:05:07.591Z,5.80
2019-02-22T14:07:35.678Z,6.40
2019-02-22T14:10:04.076Z,6.43
2019-02-22T14:12:33.113Z,5.93
2019-02-22T14:15:01.174Z,5.70
2019-02-22T14:17:29.524Z,5.93
2019-02-22T14:19:58.140Z,5.10
2019-02-22T14:22:26.231Z,5.13
2019-02-22T14:24:54.361Z,5.30
2019-02-22T14:27:22.431Z,4.63
2019-02-22T14:29:51.819Z,5.37
2019-02-22T14:32:27.698Z,4.47
2019-02-22T14:34:55.893Z,3.83
2019-02-22T14:37:23.957Z,4.00
2019-02-22T14:40:01.061Z,4.13
2019-02-22T14:42:23.298Z,3.40
2019-02-22T14:44:52.502Z,3.50
2019-02-22T14:47:20.560Z,3.60
2019-02-22T14:49:48.746Z,3.77
2019-02-22T14:52:16.788Z,3.77
2019-02-22T14:54:44.889Z,3.50
2019-02-22T14:57:17.566Z,3.60
2019-02-22T14:59:45.706Z,3.80
2019-02-22T15:02:14.417Z,3.93
2019-02-22T15:04:45.156Z,4.00
2019-02-22T15:07:13.879Z,3.80
2019-02-22T15:09:42.514Z,4.23
2019-02-22T15:12:12.074Z,4.20
2019-02-22T15:14:40.213Z,3.97
2019-02-22T15:17:33.443Z,3.70
2019-02-22T15:20:18.392Z,3.37
2019-02-22T15:22:46.674Z,4.20
2019-02-22T15:25:14.965Z,3.97
2019-02-22T15:27:43.017Z,3.90
2019-02-22T15:30:12.706Z,3.60
2019-02-22T15:32:40.700Z,3.30
2019-02-22T15:35:11.523Z,3.67
2019-02-22T15:37:43.194Z,3.87
2019-02-22T15:40:11.083Z,3.30
2019-02-22T15:42:40.770Z,3.50
2019-02-22T15:45:10.341Z,3.40
2019-02-22T15:47:51.608Z,3.47
2019-02-22T15:50:19.695Z,3.33
2019-02-22T15:52:48.764Z,3.40
2019-02-22T15:55:16.860Z,3.63
2019-02-22T15:57:45.271Z,3.40
2019-02-22T16:00:21.427Z,3.63
2019-02-22T16:02:50.034Z,3.57
2019-02-22T16:05:39.939Z,3.53
2019-02-22T16:08:08.400Z,3.47
2019-02-22T16:10:36.479Z,3.87
2019-02-22T16:13:04.526Z,3.90
2019-02-22T16:15:33.076Z,3.93
2019-02-22T16:18:01.456Z,4.13
2019-02-22T16:20:29.721Z,4.03
2019-02-22T16:22:58.223Z,4.33
2019-02-22T16:25:26.374Z,4.40
2019-02-22T16:27:54.501Z,4.80
2019-02-22T16:30:26.793Z,4.73
2019-02-22T16:32:54.838Z,4.50
2019-02-22T16:35:23.685Z,4.63
2019-02-22T16:37:52.027Z,5.10
2019-02-22T16:40:21.922Z,4.70
2019-02-22T16:42:49.976Z,4.30
2019-02-22T16:45:18.177Z,4.70
2019-02-22T16:47:46.563Z,4.77
2019-02-22T16:50:14.652Z,5.03
2019-02-22T16:52:45.163Z,4.47
2019-02-22T16:55:13.954Z,4.93
2019-02-22T16:57:42.343Z,4.83
2019-02-22T17:00:12.286Z,5.13
2019-02-22T17:02:40.545Z,5.03
2019-02-22T17:05:11.357Z,5.13
2019-02-22T17:07:41.233Z,4.53
2019-02-22T17:10:09.852Z,4.60
2019-02-22T17:12:38.207Z,4.93
2019-02-22T17:15:07.723Z,4.57
2019-02-22T17:17:35.828Z,4.43
2019-02-22T17:20:04.978Z,4.43
2019-02-22T17:22:33.060Z,4.33
2019-02-22T17:25:01.096Z,4.87
2019-02-22T17:27:30.001Z,4.57
2019-02-22T17:29:59.311Z,4.53
2019-02-22T17:32:28.062Z,3.70
2019-02-22T17:34:56.523Z,4.27
2019-02-22T17:37:24.948Z,4.10
2019-02-22T17:39:53.434Z,3.93
2019-02-22T17:42:21.991Z,3.90
2019-02-22T17:44:50.030Z,3.53
2019-02-22T17:47:19.531Z,3.70
2019-02-22T17:49:47.587Z,3.57
2019-02-22T17:52:15.696Z,3.63
2019-02-22T17:54:43.974Z,3.43
2019-02-22T17:57:12.355Z,3.67
2019-02-22T17:59:40.673Z,3.70
2019-02-22T18:02:09.797Z,4.10
2019-02-22T18:04:38.256Z,4.00
2019-02-22T18:07:06.477Z,3.53
2019-02-22T18:09:34.852Z,3.97
2019-02-22T18:12:02.956Z,3.80
2019-02-22T18:14:31.092Z,3.73
2019-02-22T18:17:07.974Z,4.13
2019-02-22T18:19:31.707Z,4.50
2019-02-22T18:21:59.886Z,4.10
2019-02-22T18:24:28.894Z,4.03
2019-02-22T18:26:57.016Z,4.67
2019-02-22T18:29:35.094Z,3.67
2019-02-22T18:31:56.403Z,4.53
2019-02-22T18:34:24.521Z,5.00
2019-02-22T18:36:52.615Z,4.50
2019-02-22T18:39:20.712Z,4.23
2019-02-22T18:41:48.917Z,4.17
2019-02-22T18:44:18.807Z,4.40
2019-02-22T18:46:47.021Z,4.10
2019-02-22T18:49:15.066Z,4.30
2019-02-22T18:51:43.168Z,3.77
2019-02-22T18:54:11.219Z,4.17
2019-02-22T18:56:39.779Z,4.50
2019-02-22T18:59:08.081Z,4.30
2019-02-22T19:01:36.204Z,4.33
2019-02-22T19:04:04.277Z,4.43
2019-02-22T19:06:32.444Z,4.20
2019-02-22T19:09:00.779Z,4.27
2019-02-22T19:11:28.865Z,3.87
2019-02-22T19:13:56.915Z,3.90
2019-02-22T19:16:25.012Z,3.73
2019-02-22T19:18:53.053Z,4.53
2019-02-22T19:21:21.130Z,4.40
2019-02-22T19:23:49.171Z,4.17
2019-02-22T19:26:17.252Z,3.73
2019-02-22T19:28:45.278Z,4.40
2019-02-22T19:31:13.383Z,4.27
2019-02-22T19:33:41.449Z,4.73
2019-02-22T19:36:09.541Z,5.03
2019-02-22T19:38:37.578Z,4.80
2019-02-22T19:41:05.791Z,5.33
2019-02-22T19:43:33.942Z,4.40
2019-02-22T19:46:02.086Z,3.43
2019-02-22T19:48:30.510Z,2.80
2019-02-22T19:50:58.564Z,2.80
2019-02-22T19:53:26.699Z,2.33
2019-02-22T19:55:55.023Z,1.87
2019-02-22T19:58:23.420Z,1.90
2019-02-22T20:00:51.497Z,2.03
2019-02-22T20:03:19.781Z,2.07
2019-02-22T20:05:47.920Z,2.00
2019-02-22T20:08:16.100Z,2.30
2019-02-22T20:10:44.269Z,1.80
2019-02-22T20:13:13.583Z,2.20
2019-02-22T20:15:41.631Z,1.73
2019-02-22T20:18:09.752Z,1.93
2019-02-22T20:20:37.878Z,2.30
2019-02-22T20:23:06.219Z,2.17
2019-02-22T20:25:34.261Z,2.30
2019-02-22T20:28:02.642Z,2.10
2019-02-22T20:30:30.714Z,2.40
2019-02-22T20:32:58.896Z,2.50
2019-02-22T20:35:26.946Z,2.50
2019-02-22T20:37:55.370Z,2.73
2019-02-22T20:40:24.421Z,2.00
2019-02-22T20:42:52.644Z,2.30
2019-02-22T20:45:20.780Z,2.33
2019-02-22T20:47:49.048Z,2.10
2019-02-22T20:50:17.333Z,2.30
2019-02-22T20:52:45.537Z,2.60
2019-02-22T20:55:13.589Z,2.20
2019-02-22T20:57:41.696Z,2.50
2019-02-22T21:00:13.121Z,2.10
2019-02-22T21:02:41.315Z,2.40
